Time;durP1;ratioP1;P1;durP2;ratioP2;P2;SDS_P1;SDS_P2;PMS_P1;PMS_P2;Temp;Humidity;BMP_temperature;BMP_pressure;BME280_temperature;BME280_humidity;BME280_pressure;Samples;Min_cycle;Max_cycle;Signal;HPM_P1;HPM_P2
2024/03/08 00:00:28;;;;;;;29.58;15.52;;;5.10;90.20;;;;;;6272527;22;20023;-65
2024/03/08 00:03:14;;;;;;;22.08;14.52;;;5.00;90.20;;;;;;6274810;22;20011;-65
2024/03/08 00:06:00;;;;;;;22.92;15.00;;;5.10;90.20;;;;;;6273595;22;20019;-65
2024/03/08 00:08:46;;;;;;;24.70;14.77;;;5.00;90.20;;;;;;6274685;22;20138;-65
2024/03/08 00:11:32;;;;;;;22.67;15.13;;;5.10;90.30;;;;;;6270601;22;20150;-65
2024/03/08 00:14:18;;;;;;;26.77;15.98;;;5.00;90.30;;;;;;6302653;22;20000;-65
2024/03/08 00:17:04;;;;;;;24.38;15.90;;;5.00;90.30;;;;;;6278786;22;20451;-65
2024/03/08 00:19:50;;;;;;;24.40;14.65;;;5.00;90.30;;;;;;6272936;22;20394;-65
2024/03/08 00:22:39;;;;;;;25.92;14.50;;;5.00;90.30;;;;;;6275146;22;20008;-65
2024/03/08 00:25:25;;;;;;;23.90;14.45;;;4.90;90.30;;;;;;6274417;22;20098;-64
2024/03/08 00:28:14;;;;;;;22.98;14.00;;;4.90;90.40;;;;;;6275469;22;20030;-65
2024/03/08 00:31:01;;;;;;;26.65;15.43;;;4.90;90.40;;;;;;6253793;22;20428;-65
2024/03/08 00:33:46;;;;;;;25.92;14.75;;;4.90;90.50;;;;;;6273961;22;20008;-64
2024/03/08 00:36:32;;;;;;;26.73;16.10;;;4.90;90.50;;;;;;6274322;22;20007;-65
2024/03/08 00:39:22;;;;;;;24.02;15.15;;;4.80;90.50;;;;;;6275041;22;20063;-64
2024/03/08 00:42:08;;;;;;;23.60;13.73;;;4.80;90.50;;;;;;6272008;22;20019;-64
2024/03/08 00:44:55;;;;;;;28.08;16.60;;;4.80;90.60;;;;;;6252005;22;20019;-64
2024/03/08 00:47:43;;;;;;;24.60;15.70;;;4.80;90.60;;;;;;6274546;22;20019;-64
2024/03/08 00:50:29;;;;;;;24.55;15.27;;;4.80;90.60;;;;;;6273340;22;20008;-64
2024/03/08 00:53:16;;;;;;;22.70;15.02;;;4.70;90.60;;;;;;6250435;22;20007;-64
2024/03/08 00:56:02;;;;;;;25.48;15.48;;;4.70;90.70;;;;;;6273551;22;20004;-65
2024/03/08 00:58:48;;;;;;;25.00;14.65;;;4.70;90.70;;;;;;6274147;22;20019;-64
2024/03/08 01:01:34;;;;;;;27.52;14.90;;;4.70;90.70;;;;;;6272272;22;20008;-65
2024/03/08 01:04:21;;;;;;;26.00;15.18;;;4.70;90.80;;;;;;6273481;22;20016;-64
2024/03/08 01:07:07;;;;;;;25.55;15.73;;;4.70;91.00;;;;;;6273954;22;20019;-65
2024/03/08 01:09:53;;;;;;;26.55;17.42;;;4.70;90.80;;;;;;6273857;22;20007;-65
2024/03/08 01:12:39;;;;;;;26.13;14.63;;;4.70;90.80;;;;;;6251123;22;20008;-65
2024/03/08 01:15:25;;;;;;;23.00;14.27;;;4.70;90.80;;;;;;6274893;22;20083;-64
2024/03/08 01:18:13;;;;;;;26.73;14.88;;;4.60;90.80;;;;;;6273770;22;20018;-64
2024/03/08 01:20:59;;;;;;;23.98;15.73;;;4.60;90.90;;;;;;6274073;22;20351;-64
2024/03/08 01:23:45;;;;;;;23.83;15.90;;;4.60;90.90;;;;;;6273880;22;20012;-65
2024/03/08 01:26:30;;;;;;;30.13;16.10;;;4.60;91.00;;;;;;6274398;22;20019;-64
2024/03/08 01:29:17;;;;;;;22.40;14.75;;;4.60;91.00;;;;;;6275735;22;20016;-65
2024/03/08 01:32:03;;;;;;;24.15;15.30;;;4.60;91.00;;;;;;6271726;22;20019;-65
2024/03/08 01:34:49;;;;;;;26.65;15.95;;;4.50;91.00;;;;;;6272518;22;20519;-65
2024/03/08 01:37:34;;;;;;;23.08;14.57;;;4.60;91.10;;;;;;6274823;22;20015;-69
2024/03/08 01:40:20;;;;;;;24.38;14.75;;;4.60;91.10;;;;;;6274066;22;20039;-69
2024/03/08 01:43:35;;;;;;;24.23;14.88;;;4.60;91.10;;;;;;6273196;22;20466;-69
2024/03/08 01:46:22;;;;;;;26.67;15.70;;;4.50;91.10;;;;;;6120957;23;20462;-69
2024/03/08 01:49:08;;;;;;;29.27;17.48;;;4.50;91.10;;;;;;6122614;23;20399;-69
2024/03/08 01:51:56;;;;;;;27.30;15.40;;;4.50;91.20;;;;;;6102774;23;20010;-69
2024/03/08 01:54:42;;;;;;;29.30;16.95;;;4.50;91.20;;;;;;6102257;23;20010;-68
2024/03/08 01:57:30;;;;;;;25.35;16.02;;;4.50;91.20;;;;;;6120414;23;20020;-68
2024/03/08 02:00:17;;;;;;;26.33;16.10;;;4.50;91.20;;;;;;6120909;23;20006;-70
2024/03/08 02:03:04;;;;;;;24.48;16.38;;;4.40;91.20;;;;;;6122999;23;20018;-69
2024/03/08 02:05:51;;;;;;;22.77;14.20;;;4.40;91.30;;;;;;6122235;23;20029;-69
2024/03/08 02:08:37;;;;;;;28.15;15.40;;;4.30;91.30;;;;;;6121689;23;20017;-69
2024/03/08 02:11:23;;;;;;;24.02;14.35;;;4.30;91.60;;;;;;6120166;23;20024;-69
2024/03/08 02:14:11;;;;;;;26.20;15.07;;;4.20;91.40;;;;;;6122768;23;20457;-69
2024/03/08 02:17:01;;;;;;;24.20;14.95;;;4.20;91.40;;;;;;6122631;23;20447;-63
2024/03/08 02:19:47;;;;;;;25.88;15.50;;;4.20;91.50;;;;;;6121695;23;20049;-65
2024/03/08 02:22:33;;;;;;;25.00;15.90;;;4.20;91.50;;;;;;6187202;23;20071;-65
2024/03/08 02:25:19;;;;;;;25.17;15.98;;;4.20;91.60;;;;;;6242617;23;20101;-65
2024/03/08 02:28:05;;;;;;;30.70;16.25;;;4.20;91.60;;;;;;6240056;23;20011;-64
2024/03/08 02:30:55;;;;;;;25.33;15.77;;;4.20;91.60;;;;;;6219337;23;20455;-64
2024/03/08 02:33:41;;;;;;;22.73;14.75;;;4.20;91.70;;;;;;6242570;23;20004;-70
2024/03/08 02:36:27;;;;;;;26.80;15.15;;;4.20;91.70;;;;;;6243993;23;20016;-71
2024/03/08 02:39:13;;;;;;;22.40;15.27;;;4.20;91.70;;;;;;6243843;23;20008;-71
2024/03/08 02:41:59;;;;;;;27.92;15.63;;;4.10;91.70;;;;;;6242557;23;20000;-71
2024/03/08 02:44:45;;;;;;;25.35;15.02;;;4.10;91.70;;;;;;6243757;23;20118;-71
2024/03/08 02:47:31;;;;;;;27.60;14.73;;;4.10;91.70;;;;;;6243772;23;20074;-70
2024/03/08 02:50:17;;;;;;;25.08;14.40;;;4.10;91.80;;;;;;6245009;23;20062;-70
2024/03/08 02:53:04;;;;;;;24.30;16.00;;;4.10;91.80;;;;;;6243511;23;20019;-70
2024/03/08 02:55:50;;;;;;;26.00;15.10;;;4.10;91.90;;;;;;6242662;23;20090;-70
2024/03/08 02:58:36;;;;;;;22.50;14.50;;;4.10;91.90;;;;;;6243078;23;20386;-70
2024/03/08 03:01:22;;;;;;;22.83;14.65;;;4.00;91.90;;;;;;6242195;23;20337;-69
2024/03/08 03:04:08;;;;;;;27.73;15.48;;;4.00;91.90;;;;;;6243630;23;20329;-69
2024/03/08 03:06:54;;;;;;;25.83;15.25;;;4.10;92.00;;;;;;6243458;23;20099;-69
2024/03/08 03:09:40;;;;;;;23.20;14.57;;;4.10;92.00;;;;;;6244535;23;20082;-69
2024/03/08 03:12:30;;;;;;;24.23;15.48;;;4.00;92.00;;;;;;6243182;23;20089;-69
2024/03/08 03:15:17;;;;;;;24.92;15.18;;;4.00;92.00;;;;;;6244916;23;20011;-69
2024/03/08 03:18:03;;;;;;;27.60;15.63;;;4.00;92.00;;;;;;6244202;23;20524;-70
2024/03/08 03:20:49;;;;;;;23.85;15.57;;;4.00;92.10;;;;;;6243597;23;20020;-70
2024/03/08 03:23:36;;;;;;;25.27;14.57;;;4.00;92.10;;;;;;6220523;23;20012;-70
2024/03/08 03:26:22;;;;;;;28.73;16.15;;;3.90;92.10;;;;;;6245627;23;20021;-70
2024/03/08 03:29:08;;;;;;;28.48;17.30;;;3.90;92.20;;;;;;6265029;23;20333;-70
2024/03/08 03:31:54;;;;;;;25.58;16.30;;;3.90;92.20;;;;;;6250881;23;20016;-70
2024/03/08 03:34:40;;;;;;;25.73;15.27;;;3.90;92.20;;;;;;6247931;23;20035;-69
2024/03/08 03:37:27;;;;;;;24.98;14.43;;;3.90;92.30;;;;;;6243392;23;20015;-69
2024/03/08 03:40:13;;;;;;;25.45;15.15;;;3.90;92.30;;;;;;6242803;23;20034;-69
2024/03/08 03:42:59;;;;;;;29.40;17.75;;;3.90;92.30;;;;;;6242698;23;20183;-69
2024/03/08 03:45:45;;;;;;;27.00;15.18;;;3.80;92.30;;;;;;6243057;23;20440;-70
2024/03/08 03:48:32;;;;;;;27.63;16.77;;;3.80;92.40;;;;;;6242921;23;20008;-71
2024/03/08 03:51:17;;;;;;;24.65;15.40;;;3.80;92.40;;;;;;6244431;23;20015;-71
2024/03/08 03:54:03;;;;;;;28.48;15.55;;;3.80;92.40;;;;;;6244172;23;20008;-70
2024/03/08 03:56:52;;;;;;;26.73;16.88;;;3.80;92.40;;;;;;6244413;23;20012;-70
2024/03/08 03:59:39;;;;;;;28.45;16.67;;;3.80;92.50;;;;;;6243134;23;20019;-71
2024/03/08 04:02:26;;;;;;;27.83;16.13;;;3.70;92.50;;;;;;6243787;23;20111;-70
2024/03/08 04:05:12;;;;;;;25.13;16.20;;;3.70;92.50;;;;;;6221256;23;20008;-70
2024/03/08 04:07:58;;;;;;;29.58;16.60;;;3.70;92.60;;;;;;6243559;23;20047;-69
2024/03/08 04:10:44;;;;;;;29.10;16.98;;;3.70;92.60;;;;;;6242701;23;20066;-69
2024/03/08 04:13:30;;;;;;;27.60;17.38;;;3.70;92.60;;;;;;6242885;23;20012;-69
2024/03/08 04:16:16;;;;;;;30.25;15.57;;;3.70;92.70;;;;;;6243259;23;20494;-68
2024/03/08 04:19:04;;;;;;;28.20;15.80;;;3.60;92.70;;;;;;6252691;22;20035;-70
2024/03/08 04:21:51;;;;;;;30.45;17.25;;;3.60;92.80;;;;;;6248597;22;20090;-69
2024/03/08 04:24:37;;;;;;;28.48;17.90;;;3.60;92.80;;;;;;6272825;22;20018;-69
2024/03/08 04:27:23;;;;;;;31.90;18.08;;;3.60;92.90;;;;;;6273864;22;20023;-69
2024/03/08 04:30:10;;;;;;;26.30;16.30;;;3.60;92.80;;;;;;6272008;22;20069;-69
2024/03/08 04:32:56;;;;;;;29.77;18.30;;;3.60;92.90;;;;;;6271262;22;20407;-69
2024/03/08 04:35:42;;;;;;;30.23;18.17;;;3.60;92.90;;;;;;6271953;22;20105;-69
2024/03/08 04:38:27;;;;;;;30.73;17.52;;;3.60;92.90;;;;;;6273206;22;20087;-69
2024/03/08 04:41:14;;;;;;;33.38;19.30;;;3.50;92.90;;;;;;6273748;22;20008;-68
2024/03/08 04:44:00;;;;;;;31.83;17.27;;;3.50;93.00;;;;;;6271937;22;20014;-69
2024/03/08 04:46:46;;;;;;;28.20;16.42;;;3.50;93.10;;;;;;6273348;22;20329;-69
2024/03/08 04:49:36;;;;;;;30.50;17.98;;;3.50;93.10;;;;;;6272311;22;20472;-70
2024/03/08 04:52:22;;;;;;;26.38;17.33;;;3.50;93.20;;;;;;6270906;22;20007;-70
2024/03/08 04:55:08;;;;;;;33.05;18.65;;;3.40;93.20;;;;;;6273515;22;20011;-70
2024/03/08 04:57:54;;;;;;;31.70;18.48;;;3.40;93.20;;;;;;6273448;22;20337;-70
2024/03/08 05:00:39;;;;;;;27.33;16.40;;;3.40;93.30;;;;;;6272569;22;20007;-69
2024/03/08 05:03:25;;;;;;;31.33;17.42;;;3.40;93.30;;;;;;6270861;22;20470;-69
2024/03/08 05:06:11;;;;;;;31.85;19.02;;;3.30;93.30;;;;;;6272241;22;20041;-69
2024/03/08 05:08:57;;;;;;;36.45;19.00;;;3.30;93.30;;;;;;6275129;22;20016;-69
2024/03/08 05:11:44;;;;;;;34.42;20.15;;;3.30;93.40;;;;;;6247420;22;20476;-70
2024/03/08 05:14:29;;;;;;;31.77;18.98;;;3.30;93.50;;;;;;6272821;22;20018;-70
2024/03/08 05:17:19;;;;;;;32.10;19.67;;;3.20;93.50;;;;;;6250505;22;20015;-70
2024/03/08 05:20:07;;;;;;;31.45;18.75;;;3.20;93.50;;;;;;6249593;22;20028;-70
2024/03/08 05:22:53;;;;;;;35.10;19.27;;;3.20;93.60;;;;;;6270715;22;20003;-70
2024/03/08 05:25:41;;;;;;;28.02;17.48;;;3.20;93.60;;;;;;6273614;22;20020;-70
2024/03/08 05:28:27;;;;;;;31.42;18.75;;;3.20;93.70;;;;;;6271664;22;20003;-70
2024/03/08 05:31:22;;;;;;;29.70;18.75;;;3.20;93.80;;;;;;6272825;22;20066;-70
2024/03/08 05:34:10;;;;;;;31.27;20.42;;;3.20;93.80;;;;;;6270685;22;20460;-70
2024/03/08 05:36:56;;;;;;;31.17;18.77;;;3.20;93.80;;;;;;6271330;22;20015;-70
2024/03/08 05:39:41;;;;;;;29.45;17.50;;;3.20;93.80;;;;;;6272427;22;20008;-70
2024/03/08 05:42:28;;;;;;;35.22;19.92;;;3.20;93.90;;;;;;6270657;22;20012;-70
2024/03/08 05:45:15;;;;;;;28.45;18.15;;;3.20;93.90;;;;;;6270624;22;19999;-70
2024/03/08 05:48:01;;;;;;;32.10;18.40;;;3.10;93.90;;;;;;6272021;22;20007;-69
2024/03/08 05:50:47;;;;;;;37.63;20.02;;;3.10;93.90;;;;;;6271423;22;20095;-70
2024/03/08 05:53:33;;;;;;;31.95;18.90;;;3.10;94.00;;;;;;6272689;22;20328;-71
2024/03/08 05:56:20;;;;;;;34.92;19.35;;;3.10;94.00;;;;;;6271868;22;20068;-70
2024/03/08 05:59:06;;;;;;;34.38;19.65;;;3.10;94.10;;;;;;6270808;22;20004;-70
2024/03/08 06:01:51;;;;;;;32.95;20.00;;;3.10;94.20;;;;;;6271060;22;20015;-70
2024/03/08 06:04:37;;;;;;;37.53;21.27;;;3.10;94.20;;;;;;6271287;22;20325;-70
2024/03/08 06:07:23;;;;;;;34.40;20.98;;;3.10;94.30;;;;;;6272663;22;20016;-69
2024/03/08 06:10:14;;;;;;;36.65;20.23;;;3.10;94.30;;;;;;6271190;22;20008;-69
2024/03/08 06:13:01;;;;;;;31.95;18.85;;;3.10;94.30;;;;;;6270525;22;20039;-69
2024/03/08 06:15:47;;;;;;;34.30;19.88;;;3.10;94.40;;;;;;6272632;22;20007;-69
2024/03/08 06:18:36;;;;;;;31.73;19.50;;;3.10;94.40;;;;;;6271053;22;20017;-69
2024/03/08 06:21:25;;;;;;;31.55;19.70;;;3.10;94.40;;;;;;6272205;22;20015;-70
2024/03/08 06:24:12;;;;;;;35.00;20.73;;;3.20;94.50;;;;;;6271457;22;20008;-70
2024/03/08 06:26:58;;;;;;;32.78;19.38;;;3.20;94.50;;;;;;6270844;22;20020;-69
2024/03/08 06:29:44;;;;;;;32.42;20.27;;;3.20;94.50;;;;;;6271246;22;20082;-70
2024/03/08 06:32:30;;;;;;;36.60;20.40;;;3.20;94.60;;;;;;6250245;22;20008;-71
2024/03/08 06:35:16;;;;;;;33.97;19.90;;;3.20;94.60;;;;;;6275261;22;20015;-71
2024/03/08 06:38:02;;;;;;;32.53;19.85;;;3.20;94.60;;;;;;6290357;22;20083;-72
2024/03/08 06:40:48;;;;;;;32.70;19.42;;;3.30;94.70;;;;;;6282118;22;20016;-72
2024/03/08 06:43:34;;;;;;;33.85;19.83;;;3.30;94.70;;;;;;6255911;22;20440;-72
2024/03/08 06:46:20;;;;;;;31.70;19.90;;;3.30;94.70;;;;;;6271086;22;20030;-74
2024/03/08 06:49:07;;;;;;;36.97;19.75;;;3.40;94.70;;;;;;6272150;22;20004;-74
2024/03/08 06:51:53;;;;;;;32.90;18.27;;;3.40;94.70;;;;;;6249516;22;20462;-74
2024/03/08 06:54:40;;;;;;;31.17;19.38;;;3.50;94.70;;;;;;6271059;22;20015;-74
2024/03/08 06:57:26;;;;;;;31.02;19.13;;;3.50;94.80;;;;;;6271645;22;20010;-75
2024/03/08 07:00:18;;;;;;;36.53;21.50;;;3.50;94.80;;;;;;6272892;22;20069;-75
2024/03/08 07:03:07;;;;;;;32.42;20.40;;;3.60;94.80;;;;;;6270453;22;20332;-73
2024/03/08 07:05:53;;;;;;;34.08;20.08;;;3.60;94.70;;;;;;6274222;22;20015;-74
2024/03/08 07:08:39;;;;;;;36.10;21.35;;;3.60;94.70;;;;;;6270984;22;20008;-74
2024/03/08 07:11:25;;;;;;;31.48;19.20;;;3.70;94.70;;;;;;6271912;22;20395;-74
2024/03/08 07:14:11;;;;;;;30.52;19.20;;;3.70;94.80;;;;;;6270996;22;20035;-73
2024/03/08 07:16:57;;;;;;;34.28;21.13;;;3.70;94.70;;;;;;6270153;22;20086;-73
2024/03/08 07:19:43;;;;;;;32.65;19.13;;;3.80;94.70;;;;;;6271198;22;20051;-73
2024/03/08 07:22:29;;;;;;;31.42;19.27;;;3.80;94.70;;;;;;6272560;22;20402;-73
2024/03/08 07:25:21;;;;;;;30.27;18.50;;;3.80;94.70;;;;;;6275058;22;20709;-74
2024/03/08 07:28:06;;;;;;;34.67;20.20;;;3.80;94.60;;;;;;6271948;22;20110;-74
2024/03/08 07:31:00;;;;;;;30.83;18.25;;;3.80;94.60;;;;;;6273126;22;20066;-73
2024/03/08 07:33:46;;;;;;;29.70;17.77;;;3.80;94.50;;;;;;6272804;22;20102;-74
2024/03/08 07:36:31;;;;;;;34.28;17.98;;;3.80;94.50;;;;;;6253725;22;20238;-73
2024/03/08 07:39:18;;;;;;;34.30;20.05;;;3.90;94.50;;;;;;6272344;22;20046;-75
2024/03/08 07:42:05;;;;;;;33.35;18.20;;;3.90;94.50;;;;;;6268183;22;20331;-77
2024/03/08 07:44:52;;;;;;;33.70;19.95;;;3.90;94.50;;;;;;6269152;22;20012;-68
2024/03/08 07:47:38;;;;;;;29.45;19.20;;;4.00;94.50;;;;;;6271909;22;20094;-68
2024/03/08 07:50:24;;;;;;;27.30;17.63;;;4.10;94.50;;;;;;6272447;22;20436;-68
2024/03/08 07:53:10;;;;;;;31.27;18.65;;;4.10;94.50;;;;;;6272460;22;20339;-68
2024/03/08 07:55:56;;;;;;;31.88;19.08;;;4.20;94.50;;;;;;6276182;22;20023;-68
2024/03/08 07:58:42;;;;;;;36.15;19.23;;;4.20;94.50;;;;;;6274195;22;20012;-68
2024/03/08 08:01:28;;;;;;;33.58;19.55;;;4.20;94.50;;;;;;6270900;22;20073;-68
2024/03/08 08:04:17;;;;;;;31.25;17.55;;;4.30;94.60;;;;;;6273696;22;20057;-67
2024/03/08 08:07:03;;;;;;;36.72;19.98;;;4.30;94.60;;;;;;6271704;22;20047;-65
2024/03/08 08:09:49;;;;;;;27.88;17.60;;;4.40;94.50;;;;;;6252305;22;20008;-66
2024/03/08 08:12:35;;;;;;;34.75;19.13;;;4.40;94.50;;;;;;6272421;22;20008;-65
2024/03/08 08:15:22;;;;;;;30.75;17.45;;;4.50;94.40;;;;;;6272931;22;20015;-66
2024/03/08 08:18:09;;;;;;;34.63;19.27;;;4.50;94.40;;;;;;6270793;22;20016;-66
2024/03/08 08:20:56;;;;;;;30.70;17.45;;;4.60;94.40;;;;;;6241294;23;20395;-68
2024/03/08 08:23:41;;;;;;;30.00;17.00;;;4.60;94.30;;;;;;6238156;23;20046;-68
2024/03/08 08:26:27;;;;;;;35.40;20.23;;;4.70;94.50;;;;;;6237562;23;20107;-67
2024/03/08 08:29:13;;;;;;;30.15;18.00;;;4.80;94.30;;;;;;6219494;23;20452;-67
2024/03/08 08:31:59;;;;;;;30.40;17.85;;;4.80;94.20;;;;;;6236420;23;20016;-68
2024/03/08 08:34:46;;;;;;;29.92;17.42;;;4.90;94.20;;;;;;6241453;23;20004;-67
2024/03/08 08:37:32;;;;;;;29.85;18.52;;;5.00;94.20;;;;;;6240889;23;20077;-68
2024/03/08 08:40:19;;;;;;;30.38;19.15;;;5.00;94.20;;;;;;6241560;23;20024;-71
2024/03/08 08:43:05;;;;;;;27.23;17.30;;;5.10;94.20;;;;;;6239676;23;20012;-69
2024/03/08 08:45:54;;;;;;;29.73;18.80;;;5.20;94.10;;;;;;6239652;23;20042;-63
2024/03/08 08:48:45;;;;;;;25.27;16.58;;;5.30;94.00;;;;;;6239897;23;20074;-63
2024/03/08 08:51:33;;;;;;;26.95;17.23;;;5.30;93.90;;;;;;6243056;23;20019;-63
2024/03/08 08:54:20;;;;;;;26.77;16.67;;;5.40;93.90;;;;;;6240789;23;20008;-64
2024/03/08 08:57:07;;;;;;;29.52;17.55;;;5.50;93.90;;;;;;6241680;23;20081;-64
2024/03/08 08:59:53;;;;;;;25.20;17.23;;;5.60;93.70;;;;;;6241520;23;20011;-64
2024/03/08 09:02:39;;;;;;;26.08;16.33;;;5.60;93.50;;;;;;6240853;23;20091;-64
2024/03/08 09:05:26;;;;;;;29.65;17.33;;;5.70;93.50;;;;;;6240224;23;20023;-63
2024/03/08 09:08:12;;;;;;;27.45;17.40;;;5.80;93.40;;;;;;6241602;23;20176;-63
2024/03/08 09:10:59;;;;;;;28.52;17.80;;;5.80;93.20;;;;;;6241223;23;20012;-64
2024/03/08 09:13:46;;;;;;;24.80;16.40;;;5.80;93.00;;;;;;6242863;23;20019;-64
2024/03/08 09:16:33;;;;;;;28.13;17.40;;;5.80;93.00;;;;;;6240778;23;20004;-64
2024/03/08 09:19:19;;;;;;;27.85;15.95;;;5.90;93.00;;;;;;6250553;22;20515;-64
2024/03/08 09:22:05;;;;;;;26.05;16.58;;;6.00;93.00;;;;;;6272105;22;20008;-64
2024/03/08 09:24:51;;;;;;;26.88;16.45;;;6.10;93.00;;;;;;6272096;22;20019;-65
2024/03/08 09:27:37;;;;;;;27.92;17.33;;;6.20;92.70;;;;;;6269851;22;20452;-65
2024/03/08 09:30:23;;;;;;;23.67;15.70;;;6.20;92.60;;;;;;6274353;22;20004;-64
2024/03/08 09:33:11;;;;;;;29.77;17.65;;;6.30;92.70;;;;;;6269861;22;20353;-63
2024/03/08 09:35:57;;;;;;;26.73;17.15;;;6.40;92.60;;;;;;6272236;22;20012;-65
2024/03/08 09:38:44;;;;;;;24.88;15.68;;;6.40;92.40;;;;;;6272395;22;20146;-65
2024/03/08 09:41:30;;;;;;;23.17;15.68;;;6.50;92.40;;;;;;6295734;22;20272;-64
2024/03/08 09:44:16;;;;;;;27.63;17.17;;;6.60;92.30;;;;;;6297266;22;20018;-65
2024/03/08 09:47:04;;;;;;;24.63;16.67;;;6.60;92.00;;;;;;6276703;22;20039;-64
2024/03/08 09:49:50;;;;;;;22.33;14.98;;;6.70;92.10;;;;;;6272122;22;20014;-65
2024/03/08 09:52:37;;;;;;;25.83;15.27;;;6.70;92.00;;;;;;6273645;22;20008;-65
2024/03/08 09:55:28;;;;;;;22.98;14.40;;;6.80;91.90;;;;;;6272633;22;20004;-64
2024/03/08 10:01:13;;;;;;;24.83;15.40;;;6.90;91.80;;;;;;6272432;22;20039;-64
2024/03/08 10:03:59;;;;;;;21.60;14.10;;;7.00;91.60;;;;;;6272080;22;20011;-64
2024/03/08 10:06:48;;;;;;;25.70;15.13;;;7.00;91.40;;;;;;6272548;22;20020;-65
2024/03/08 10:09:36;;;;;;;19.05;14.18;;;7.10;91.30;;;;;;6273491;22;20091;-64
2024/03/08 10:12:22;;;;;;;27.10;15.68;;;7.20;91.30;;;;;;6271843;22;20008;-64
2024/03/08 10:15:08;;;;;;;25.77;15.98;;;7.20;91.20;;;;;;6271303;22;20046;-65
2024/03/08 10:17:57;;;;;;;22.48;14.98;;;7.30;91.10;;;;;;6270713;22;20016;-64
2024/03/08 10:20:43;;;;;;;30.35;16.65;;;7.40;90.90;;;;;;6271634;22;20061;-64
2024/03/08 10:23:29;;;;;;;23.48;15.43;;;7.40;90.80;;;;;;6271034;22;20146;-64
2024/03/08 10:26:16;;;;;;;26.27;14.93;;;7.40;90.20;;;;;;6273537;22;20448;-65
2024/03/08 10:29:04;;;;;;;28.05;15.35;;;7.40;90.30;;;;;;6249696;22;20082;-64
2024/03/08 10:31:51;;;;;;;22.75;14.82;;;7.50;90.10;;;;;;6273093;22;20364;-64
2024/03/08 10:34:37;;;;;;;20.88;13.57;;;7.50;90.30;;;;;;6271262;22;20428;-65
2024/03/08 10:37:24;;;;;;;23.63;13.40;;;7.50;89.90;;;;;;6273471;22;20321;-66
2024/03/08 10:40:18;;;;;;;24.95;15.93;;;7.60;90.00;;;;;;6271254;22;20031;-64
2024/03/08 10:43:04;;;;;;;21.60;13.85;;;7.60;90.00;;;;;;6270878;22;20090;-64
2024/03/08 10:45:56;;;;;;;23.63;14.52;;;7.70;89.80;;;;;;6272745;22;20020;-64
2024/03/08 10:48:49;;;;;;;24.63;13.65;;;7.80;88.90;;;;;;6274787;22;20014;-64
2024/03/08 10:51:38;;;;;;;20.08;12.35;;;7.80;88.80;;;;;;6272290;22;20007;-64
2024/03/08 10:54:26;;;;;;;20.80;12.32;;;7.90;88.60;;;;;;6272218;22;20049;-64
2024/03/08 17:25:42;;;;;;;15.45;10.07;;;9.10;73.60;;;;;;6243299;23;20060;-71
2024/03/08 17:28:28;;;;;;;14.65;10.65;;;9.00;73.80;;;;;;6241530;23;20019;-70
2024/03/08 17:31:14;;;;;;;15.50;9.90;;;9.00;74.00;;;;;;6242374;23;20015;-70
2024/03/08 17:34:00;;;;;;;16.08;9.55;;;8.90;74.10;;;;;;6243393;23;20005;-70
2024/03/08 17:36:47;;;;;;;16.27;9.85;;;8.90;74.20;;;;;;6244577;23;20004;-71
2024/03/08 17:39:34;;;;;;;17.30;10.30;;;8.90;74.30;;;;;;6240393;23;20077;-70
2024/03/08 17:42:20;;;;;;;15.25;9.50;;;8.80;74.30;;;;;;6241864;23;20008;-69
2024/03/08 17:45:06;;;;;;;16.25;10.77;;;8.80;74.40;;;;;;6243655;23;20393;-71
2024/03/08 17:47:52;;;;;;;14.88;10.48;;;8.70;74.50;;;;;;6241764;23;20452;-71
2024/03/08 17:50:39;;;;;;;18.00;10.07;;;8.70;74.50;;;;;;6242069;23;20047;-71
2024/03/08 17:53:30;;;;;;;17.60;10.68;;;8.60;74.50;;;;;;6221515;23;20403;-71
2024/03/08 17:56:16;;;;;;;16.95;10.55;;;8.60;74.60;;;;;;6238935;23;20105;-70
2024/03/08 17:59:02;;;;;;;19.48;11.60;;;8.60;74.70;;;;;;6241004;23;20004;-70
2024/03/08 18:01:48;;;;;;;17.67;10.57;;;8.50;74.70;;;;;;6240993;23;20108;-71
2024/03/08 18:04:34;;;;;;;15.38;10.05;;;8.50;74.80;;;;;;6241287;23;20084;-70
2024/03/08 18:07:20;;;;;;;16.52;11.10;;;8.50;75.00;;;;;;6219629;23;20027;-70
2024/03/08 18:10:09;;;;;;;18.02;10.60;;;8.40;75.00;;;;;;6241147;23;20070;-70
2024/03/08 18:13:02;;;;;;;18.38;10.98;;;8.40;75.20;;;;;;6240721;23;20019;-70
2024/03/08 18:15:48;;;;;;;16.23;10.48;;;8.30;75.20;;;;;;6240782;23;20475;-70
2024/03/08 18:18:34;;;;;;;17.20;11.27;;;8.30;75.40;;;;;;6242820;23;20348;-71
2024/03/08 18:21:20;;;;;;;18.65;12.45;;;8.20;75.40;;;;;;6239837;23;20008;-70
2024/03/08 18:24:07;;;;;;;20.90;12.70;;;8.20;75.40;;;;;;6255293;22;20020;-70
2024/03/08 18:26:53;;;;;;;16.75;11.20;;;8.20;75.50;;;;;;6271829;22;20015;-71
2024/03/08 18:29:39;;;;;;;18.10;12.00;;;8.10;75.60;;;;;;6271378;22;20030;-70
2024/03/08 18:32:25;;;;;;;21.17;11.60;;;8.10;75.60;;;;;;6270296;22;20011;-71
2024/03/08 18:35:13;;;;;;;18.77;11.93;;;8.00;75.70;;;;;;6271093;22;20439;-70
2024/03/08 18:37:59;;;;;;;19.27;11.95;;;8.00;75.80;;;;;;6272499;22;20333;-71
2024/03/08 18:40:47;;;;;;;19.23;11.30;;;8.00;75.80;;;;;;6273574;22;20419;-71
2024/03/08 18:43:33;;;;;;;18.23;11.27;;;8.00;75.80;;;;;;6272115;22;20018;-70
2024/03/08 18:46:19;;;;;;;18.80;12.45;;;8.00;75.80;;;;;;6270979;22;20051;-70
2024/03/08 18:49:05;;;;;;;19.33;12.52;;;7.90;75.80;;;;;;6273017;22;20083;-71
2024/03/08 18:51:54;;;;;;;19.90;13.35;;;7.90;75.70;;;;;;6274017;22;20022;-71
2024/03/08 18:54:40;;;;;;;20.52;12.50;;;7.80;75.70;;;;;;6272083;22;20034;-71
2024/03/08 18:57:29;;;;;;;17.27;10.80;;;7.80;75.80;;;;;;6271629;22;20007;-71
2024/03/08 19:00:22;;;;;;;17.55;11.00;;;7.80;75.90;;;;;;6272957;22;20008;-70
2024/03/08 19:03:13;;;;;;;17.23;11.27;;;7.80;75.90;;;;;;6252732;22;20090;-70
2024/03/08 19:06:01;;;;;;;18.20;11.40;;;7.70;75.80;;;;;;6270378;22;20019;-70
2024/03/08 19:08:49;;;;;;;18.73;11.98;;;7.70;75.80;;;;;;6270986;22;20090;-71
2024/03/08 19:11:36;;;;;;;17.80;12.00;;;7.60;75.80;;;;;;6254888;22;20093;-71
2024/03/08 19:14:22;;;;;;;19.50;12.00;;;7.60;75.80;;;;;;6281063;22;20011;-70
2024/03/08 19:17:12;;;;;;;21.10;13.57;;;7.60;75.90;;;;;;6282684;22;20019;-71
2024/03/08 19:19:58;;;;;;;21.38;12.77;;;7.60;75.90;;;;;;6279800;22;20063;-72
2024/03/08 19:22:53;;;;;;;19.73;11.93;;;7.60;75.90;;;;;;6275276;22;20022;-71
2024/03/08 19:25:41;;;;;;;18.23;11.07;;;7.50;76.00;;;;;;6273577;22;20023;-70
2024/03/08 19:28:28;;;;;;;18.23;11.57;;;7.50;76.00;;;;;;6273342;22;20386;-72
2024/03/08 19:31:15;;;;;;;16.05;11.07;;;7.50;76.00;;;;;;6272632;22;20435;-71
2024/03/08 19:34:01;;;;;;;18.27;11.68;;;7.40;76.00;;;;;;6272750;22;20448;-71
2024/03/08 19:36:47;;;;;;;20.00;12.65;;;7.40;76.10;;;;;;6274955;22;20086;-70
2024/03/08 19:39:34;;;;;;;21.52;11.73;;;7.30;76.20;;;;;;6273549;22;20077;-71
2024/03/08 19:42:21;;;;;;;17.52;12.73;;;7.30;76.30;;;;;;6273034;22;20427;-71
2024/03/08 19:45:09;;;;;;;21.75;11.70;;;7.30;76.40;;;;;;6275737;22;20336;-70
2024/03/08 19:48:01;;;;;;;22.35;11.88;;;7.30;76.60;;;;;;6275499;22;20019;-71
2024/03/08 19:50:48;;;;;;;18.35;11.13;;;7.30;76.70;;;;;;6251481;22;20047;-70
2024/03/08 19:53:35;;;;;;;20.50;12.90;;;7.20;76.70;;;;;;6272632;22;20015;-71
2024/03/08 19:56:22;;;;;;;22.23;13.80;;;7.20;76.80;;;;;;6273882;22;20347;-71
2024/03/08 19:59:08;;;;;;;18.52;12.05;;;7.20;76.90;;;;;;6274803;22;20007;-71
2024/03/08 20:01:55;;;;;;;19.30;11.57;;;7.20;77.00;;;;;;6252245;22;20011;-71
2024/03/08 20:04:41;;;;;;;15.93;11.60;;;7.20;77.10;;;;;;6273347;22;20058;-71
2024/03/08 20:07:27;;;;;;;17.90;11.68;;;7.20;77.30;;;;;;6276608;22;20016;-72
2024/03/08 20:10:16;;;;;;;17.80;12.05;;;7.20;77.60;;;;;;6274553;22;20015;-70
2024/03/08 20:13:07;;;;;;;19.08;12.57;;;7.10;77.60;;;;;;6273000;22;20003;-71
2024/03/08 20:15:52;;;;;;;18.95;11.40;;;7.10;77.60;;;;;;6274858;22;20028;-69
2024/03/08 20:18:39;;;;;;;21.88;12.40;;;7.10;77.70;;;;;;6272154;22;20118;-71
2024/03/08 20:21:25;;;;;;;17.35;11.55;;;7.10;78.00;;;;;;6271188;22;20416;-70
2024/03/08 20:24:11;;;;;;;22.60;12.45;;;7.00;78.10;;;;;;6273288;22;20029;-72
2024/03/08 20:26:58;;;;;;;21.52;14.73;;;7.00;78.20;;;;;;6272232;22;20019;-71
2024/03/08 20:29:45;;;;;;;21.17;12.23;;;7.00;78.30;;;;;;6272328;22;20011;-71
2024/03/08 20:32:31;;;;;;;20.60;13.40;;;7.00;78.50;;;;;;6271864;22;20091;-71
2024/03/08 20:35:20;;;;;;;21.38;12.85;;;6.90;78.50;;;;;;6273866;22;20466;-71
2024/03/08 20:38:14;;;;;;;17.95;12.07;;;6.90;78.70;;;;;;6273164;22;20012;-71
2024/03/08 20:41:01;;;;;;;21.10;13.20;;;6.90;79.10;;;;;;6252445;22;20070;-70
2024/03/08 20:43:47;;;;;;;23.42;13.45;;;6.80;79.00;;;;;;6271457;22;20008;-71
2024/03/08 20:46:33;;;;;;;17.80;12.43;;;6.80;79.10;;;;;;6271684;22;20440;-70
2024/03/08 20:49:20;;;;;;;20.98;12.85;;;6.80;79.30;;;;;;6273392;22;20008;-70